Time;durP1;ratioP1;P1;durP2;ratioP2;P2;SDS_P1;SDS_P2;PMS_P1;PMS_P2;Temp;Humidity;BMP_temperature;BMP_pressure;BME280_temperature;BME280_humidity;BME280_pressure;Samples;Min_cycle;Max_cycle;Signal;HPM_P1;HPM_P2
2023/06/26 00:01:29;;;;;;;9.10;8.50;;;24.30;38.40;;;;;;20490;6705;293962;-80
2023/06/26 00:04:03;;;;;;;8.98;8.48;;;24.50;38.30;;;;;;20731;6711;304560;-80
2023/06/26 00:06:38;;;;;;;7.77;7.27;;;24.80;38.10;;;;;;20969;6714;117686;-80
2023/06/26 00:09:15;;;;;;;8.73;8.20;;;24.60;38.10;;;;;;20707;6721;305495;-80
2023/06/26 00:11:52;;;;;;;8.00;7.50;;;24.70;38.30;;;;;;21013;6699;117409;-80
2023/06/26 00:14:29;;;;;;;8.98;8.40;;;24.50;38.30;;;;;;20685;6714;336984;-80
2023/06/26 00:17:06;;;;;;;9.20;8.60;;;24.60;38.40;;;;;;20720;6689;304667;-79
2023/06/26 00:19:41;;;;;;;7.67;7.17;;;24.90;38.10;;;;;;20980;6689;118933;-81
2023/06/26 00:22:20;;;;;;;8.53;7.93;;;24.60;38.20;;;;;;21043;6685;116705;-80
2023/06/26 00:24:57;;;;;;;8.93;8.33;;;24.20;38.50;;;;;;20652;6667;292576;-82
2023/06/26 00:27:33;;;;;;;9.05;8.55;;;24.30;38.60;;;;;;20735;6697;334199;-80
2023/06/26 00:30:09;;;;;;;8.00;7.50;;;24.60;37.90;;;;;;20922;6710;116920;-80
2023/06/26 00:32:46;;;;;;;9.33;8.53;;;24.50;37.90;;;;;;20741;6715;304778;-79
2023/06/26 00:35:21;;;;;;;8.30;7.80;;;24.50;37.70;;;;;;20879;6696;119912;-80
2023/06/26 00:38:08;;;;;;;;;;;;;;;;;;;;;
2023/06/26 00:40:36;;;;;;;7.87;7.37;;;23.70;38.70;;;;;;20733;6713;117320;-80
2023/06/26 00:43:11;;;;;;;8.90;8.20;;;23.70;38.70;;;;;;20716;6728;305448;-80
2023/06/26 00:45:48;;;;;;;8.87;7.40;;;23.90;39.00;;;;;;20820;6728;117230;-80
2023/06/26 00:48:23;;;;;;;8.60;8.00;;;23.80;39.00;;;;;;20650;6797;275960;-80
2023/06/26 00:51:02;;;;;;;7.93;7.43;;;24.00;38.80;;;;;;20895;6722;117469;-79
2023/06/26 00:53:34;;;;;;;7.93;7.33;;;23.90;38.90;;;;;;20894;6726;122048;-80
2023/06/26 00:56:11;;;;;;;8.50;8.00;;;23.70;40.30;;;;;;20518;6713;308172;-80
2023/06/26 00:58:48;;;;;;;9.50;8.70;;;23.70;39.40;;;;;;20606;6728;276191;-80
2023/06/26 01:01:25;;;;;;;8.98;8.48;;;24.00;39.00;;;;;;20638;6746;335700;-80
2023/06/26 01:03:59;;;;;;;9.00;8.40;;;24.30;38.90;;;;;;20596;6743;306139;-80
2023/06/26 01:06:35;;;;;;;8.23;7.57;;;24.40;38.30;;;;;;20851;6741;116150;-82
2023/06/26 01:09:11;;;;;;;8.80;8.30;;;24.20;38.50;;;;;;20652;6752;278316;-84
2023/06/26 01:11:47;;;;;;;8.63;8.13;;;24.20;38.60;;;;;;20687;6740;279634;-80
2023/06/26 01:14:24;;;;;;;9.07;8.50;;;24.30;38.50;;;;;;20668;6741;279023;-80
2023/06/26 01:17:02;;;;;;;9.17;8.60;;;24.50;39.00;;;;;;20718;6711;305204;-80
2023/06/26 01:19:35;;;;;;;8.90;8.40;;;24.60;38.40;;;;;;20749;6726;280992;-79
2023/06/26 01:22:27;;;;;;;11.77;10.98;;;24.60;38.40;;;;;;20660;6726;337796;-81
2023/06/26 01:25:29;;;;;;;15.43;13.87;;;24.60;38.50;;;;;;20925;6726;116457;-79
2023/06/26 01:28:07;;;;;;;13.23;12.10;;;23.70;39.60;;;;;;20942;6727;121253;-80
2023/06/26 01:30:45;;;;;;;8.73;8.13;;;23.70;39.60;;;;;;20920;6743;117461;-80
2023/06/26 01:33:18;;;;;;;8.00;7.50;;;23.40;40.20;;;;;;20912;6743;117350;-80
2023/06/26 01:35:54;;;;;;;9.33;8.73;;;23.40;41.20;;;;;;20537;6743;302330;-82
2023/06/26 01:38:30;;;;;;;9.07;8.53;;;23.40;41.10;;;;;;20695;6721;305263;-79
2023/06/26 01:53:32;;;;;;;8.83;8.23;;;24.50;40.00;;;;;;20769;6514;284468;-82
2023/06/26 01:55:58;;;;;;;8.40;7.80;;;24.10;41.10;;;;;;20728;6795;117516;-82
2023/06/26 01:58:24;;;;;;;9.32;8.70;;;24.10;40.50;;;;;;20420;6842;307481;-82
2023/06/26 02:00:50;;;;;;;9.15;8.45;;;24.00;40.80;;;;;;20529;6842;308056;-82
2023/06/26 02:03:15;;;;;;;9.10;8.50;;;24.00;40.60;;;;;;20531;6841;309236;-81
2023/06/26 02:05:41;;;;;;;8.57;7.87;;;24.20;40.50;;;;;;20747;6841;121181;-80
2023/06/26 02:08:07;;;;;;;8.38;7.78;;;23.80;40.80;;;;;;20745;6841;118115;-80
2023/06/26 02:10:34;;;;;;;9.07;8.47;;;23.40;41.30;;;;;;20526;6842;278075;-80
2023/06/26 02:13:00;;;;;;;8.55;8.05;;;23.40;41.80;;;;;;20533;6840;283621;-80
2023/06/26 02:15:25;;;;;;;8.60;8.00;;;23.60;41.50;;;;;;20728;6836;117295;-80
2023/06/26 02:17:51;;;;;;;8.53;8.03;;;23.40;41.80;;;;;;20763;6836;117869;-80
2023/06/26 02:20:20;;;;;;;8.63;7.83;;;23.10;41.70;;;;;;20756;6836;117142;-80
2023/06/26 02:22:45;;;;;;;8.80;8.20;;;22.80;41.90;;;;;;20555;6836;311847;-80
2023/06/26 02:25:12;;;;;;;8.90;8.38;;;22.90;42.30;;;;;;20559;6836;337552;-80
2023/06/26 02:27:36;;;;;;;8.82;8.13;;;23.20;41.80;;;;;;20743;6836;117369;-80
2023/06/26 02:30:02;;;;;;;8.90;8.20;;;23.20;41.70;;;;;;20770;6836;118184;-80
2023/06/26 02:32:28;;;;;;;9.80;9.10;;;22.80;41.90;;;;;;20546;6836;278823;-79
2023/06/26 02:34:53;;;;;;;9.13;8.47;;;22.90;42.00;;;;;;20757;6836;118571;-80
2023/06/26 02:37:19;;;;;;;9.37;8.77;;;22.80;41.90;;;;;;20527;6836;308271;-79
2023/06/26 02:39:44;;;;;;;7.97;7.47;;;23.00;41.90;;;;;;20757;6836;118738;-80
2023/06/26 02:42:11;;;;;;;9.60;9.00;;;23.00;41.70;;;;;;20560;6836;312306;-80
2023/06/26 02:44:36;;;;;;;8.57;8.07;;;23.00;41.70;;;;;;20759;6836;118261;-80
2023/06/26 02:47:04;;;;;;;9.33;8.80;;;23.00;41.40;;;;;;20552;6836;304257;-84
2023/06/26 02:49:30;;;;;;;8.80;8.20;;;23.30;41.40;;;;;;20532;6836;307921;-80
2023/06/26 02:51:56;;;;;;;8.47;7.77;;;23.30;41.40;;;;;;20754;6836;118484;-79
2023/06/26 02:54:21;;;;;;;8.10;7.50;;;23.20;41.30;;;;;;20757;6836;118143;-79
2023/06/26 02:56:48;;;;;;;9.20;8.60;;;22.90;41.70;;;;;;20539;6832;311899;-82
2023/06/26 02:59:13;;;;;;;8.70;8.10;;;23.00;41.60;;;;;;20683;6861;116488;-80
2023/06/26 03:01:39;;;;;;;8.37;7.87;;;22.60;42.30;;;;;;20629;6855;119674;-80
2023/06/26 03:04:04;;;;;;;8.83;8.23;;;22.60;42.30;;;;;;20685;6860;117178;-80
2023/06/26 03:06:30;;;;;;;9.50;8.80;;;22.30;42.80;;;;;;20477;6859;284235;-79
2023/06/26 03:08:55;;;;;;;10.07;9.27;;;22.40;43.60;;;;;;20479;6859;279377;-80
2023/06/26 03:11:21;;;;;;;9.23;8.63;;;22.70;43.30;;;;;;20683;6856;122234;-80
2023/06/26 03:13:47;;;;;;;8.60;8.00;;;22.50;43.20;;;;;;20706;6855;117616;-79
2023/06/26 03:16:13;;;;;;;9.17;8.47;;;22.20;43.60;;;;;;20711;6855;116427;-80
2023/06/26 03:18:39;;;;;;;10.17;9.47;;;21.90;44.10;;;;;;20462;6855;306483;-79
2023/06/26 03:21:05;;;;;;;9.98;9.27;;;22.00;45.10;;;;;;20481;6855;279592;-80
2023/06/26 03:23:30;;;;;;;9.00;8.30;;;22.30;45.00;;;;;;20675;6855;122947;-79
2023/06/26 03:25:56;;;;;;;10.13;9.50;;;22.10;44.80;;;;;;20485;6855;283671;-79
2023/06/26 03:28:21;;;;;;;8.90;8.17;;;22.10;45.40;;;;;;20645;6876;118678;-79
2023/06/26 03:30:47;;;;;;;8.77;8.07;;;21.90;45.30;;;;;;20725;6846;117162;-79
2023/06/26 03:33:12;;;;;;;9.88;9.27;;;21.60;45.70;;;;;;20536;6846;286428;-79
2023/06/26 03:35:38;;;;;;;10.07;9.40;;;21.70;46.20;;;;;;20503;6843;337426;-76
2023/06/26 03:38:03;;;;;;;9.75;8.75;;;21.90;46.10;;;;;;20739;6843;117725;-79
2023/06/26 03:40:29;;;;;;;9.23;8.30;;;21.70;45.80;;;;;;20733;6843;116752;-80
2023/06/26 03:42:55;;;;;;;8.93;8.33;;;21.40;46.10;;;;;;20720;6843;117726;-78
2023/06/26 03:45:20;;;;;;;8.95;8.25;;;21.20;47.20;;;;;;20705;6843;117638;-78
2023/06/26 03:47:49;;;;;;;10.00;9.30;;;20.90;46.70;;;;;;20502;6843;278887;-81
2023/06/26 03:50:18;;;;;;;9.13;8.43;;;21.20;47.40;;;;;;20718;6843;118494;-79
2023/06/26 03:52:43;;;;;;;8.83;8.27;;;21.10;47.00;;;;;;20718;6843;118399;-79
2023/06/26 03:55:09;;;;;;;10.23;9.43;;;21.10;47.60;;;;;;20502;6843;337197;-79
2023/06/26 03:57:35;;;;;;;10.02;9.40;;;21.10;47.60;;;;;;20507;6843;278517;-79
2023/06/26 04:00:05;;;;;;;10.00;9.30;;;21.40;47.10;;;;;;20519;6843;303780;-79
2023/06/26 04:02:27;;;;;;;9.80;9.10;;;21.70;46.60;;;;;;20514;6843;282850;-78
2023/06/26 04:04:53;;;;;;;9.93;9.32;;;21.80;46.20;;;;;;20520;6843;277198;-78
2023/06/26 04:07:18;;;;;;;9.63;9.03;;;22.00;45.90;;;;;;20476;6843;323663;-79
2023/06/26 04:09:44;;;;;;;10.15;9.45;;;22.10;45.60;;;;;;20498;6843;308568;-78
2023/06/26 04:12:09;;;;;;;9.60;8.87;;;22.20;45.40;;;;;;20706;6842;116741;-79
2023/06/26 04:14:35;;;;;;;9.82;9.15;;;21.90;45.40;;;;;;20494;6842;279045;-79
2023/06/26 04:17:03;;;;;;;10.10;9.40;;;21.90;45.80;;;;;;20514;6840;339337;-79
2023/06/26 04:19:26;;;;;;;8.80;8.20;;;22.10;45.50;;;;;;20660;6840;117890;-77
2023/06/26 04:21:52;;;;;;;8.30;7.80;;;21.90;45.60;;;;;;20712;6841;118221;-77
2023/06/26 04:24:17;;;;;;;8.50;7.80;;;21.60;46.00;;;;;;20725;6841;117168;-79
2023/06/26 04:26:45;;;;;;;9.88;9.23;;;21.30;46.40;;;;;;20530;6841;278796;-76
2023/06/26 04:29:10;;;;;;;9.95;9.05;;;21.50;46.60;;;;;;20508;6841;337574;-78
2023/06/26 04:31:36;;;;;;;8.20;7.70;;;21.80;45.90;;;;;;20701;6841;118082;-78
2023/06/26 04:34:02;;;;;;;8.27;7.77;;;21.80;45.80;;;;;;20721;6841;120532;-81
2023/06/26 04:36:28;;;;;;;9.17;8.57;;;21.50;46.10;;;;;;20518;6841;279175;-80
2023/06/26 04:38:53;;;;;;;9.53;8.93;;;21.70;46.20;;;;;;20524;6841;319483;-84
2023/06/26 04:41:19;;;;;;;8.50;8.00;;;22.00;45.70;;;;;;20705;6841;119303;-84
2023/06/26 04:43:48;;;;;;;10.18;9.43;;;21.90;45.70;;;;;;20522;6841;294053;-84
2023/06/26 04:46:14;;;;;;;8.27;7.73;;;21.90;45.50;;;;;;20717;6841;118548;-86
2023/06/26 04:48:40;;;;;;;10.17;9.50;;;21.90;45.80;;;;;;20516;6841;278548;-86
2023/06/26 04:51:05;;;;;;;9.45;8.65;;;22.00;45.80;;;;;;20519;6841;313719;-87
2023/06/26 04:53:31;;;;;;;9.03;8.43;;;22.30;45.60;;;;;;20699;6841;123719;-87
2023/06/26 04:55:58;;;;;;;8.90;8.40;;;22.20;45.60;;;;;;20522;6841;281872;-81
2023/06/26 04:58:24;;;;;;;8.77;8.07;;;22.20;46.40;;;;;;20707;6841;118904;-86
2023/06/26 05:00:50;;;;;;;8.52;7.82;;;21.90;45.90;;;;;;20733;6841;117261;-87
2023/06/26 05:03:16;;;;;;;9.53;7.83;;;21.90;45.90;;;;;;20730;6841;118269;-87
2023/06/26 05:05:41;;;;;;;9.40;8.70;;;21.70;46.30;;;;;;20470;6841;336602;-81
2023/06/26 05:08:24;;;;;;;9.23;8.63;;;21.90;46.90;;;;;;20725;6841;117240;-81
2023/06/26 05:10:50;;;;;;;8.47;7.80;;;21.90;46.30;;;;;;20704;6841;118934;-84
2023/06/26 05:13:20;;;;;;;9.33;8.63;;;21.60;46.80;;;;;;20727;6841;117192;-82
2023/06/26 05:15:47;;;;;;;9.47;8.87;;;21.60;46.80;;;;;;20333;6841;307151;-84
2023/06/26 05:18:12;;;;;;;9.60;9.00;;;21.80;47.10;;;;;;20507;6841;339376;-84
2023/06/26 05:20:38;;;;;;;9.77;8.33;;;22.20;46.50;;;;;;20730;6841;121565;-83
2023/06/26 05:23:04;;;;;;;9.40;8.80;;;22.20;46.30;;;;;;20517;6841;277692;-81
2023/06/26 05:25:30;;;;;;;9.97;9.20;;;22.70;45.90;;;;;;20499;6841;336324;-81
2023/06/26 05:27:58;;;;;;;8.67;7.80;;;22.70;45.90;;;;;;20734;6839;117327;-84
2023/06/26 05:30:34;;;;;;;9.07;8.33;;;22.60;45.80;;;;;;20727;6840;117095;-85
2023/06/26 05:32:50;;;;;;;9.10;8.50;;;22.40;45.60;;;;;;20453;6841;278883;-80
2023/06/26 05:35:15;;;;;;;9.33;8.73;;;22.50;46.60;;;;;;20523;6841;277904;-82
2023/06/26 05:37:41;;;;;;;9.85;9.10;;;22.80;46.20;;;;;;20508;6841;284558;-80
2023/06/26 05:40:07;;;;;;;9.70;9.10;;;23.10;45.60;;;;;;20520;6841;312232;-82
2023/06/26 05:42:33;;;;;;;9.48;8.88;;;23.40;45.40;;;;;;20518;6841;306301;-81
2023/06/26 05:44:58;;;;;;;9.27;8.60;;;23.60;45.40;;;;;;20730;6841;117164;-79
2023/06/26 05:47:24;;;;;;;8.33;7.57;;;23.50;45.40;;;;;;20732;6841;118488;-82
2023/06/26 05:49:49;;;;;;;9.57;8.88;;;23.20;45.70;;;;;;20538;6841;278606;-82
2023/06/26 05:52:15;;;;;;;8.23;7.63;;;23.30;45.70;;;;;;20736;6841;117850;-78
2023/06/26 05:54:42;;;;;;;8.00;7.43;;;23.40;45.70;;;;;;20723;6841;118024;-85
2023/06/26 05:57:08;;;;;;;8.20;7.70;;;23.20;45.70;;;;;;20734;6841;117238;-81
2023/06/26 05:59:34;;;;;;;8.60;7.57;;;23.20;46.00;;;;;;20714;6841;123267;-83
2023/06/26 06:02:01;;;;;;;9.57;8.87;;;23.50;46.80;;;;;;20509;6841;313476;-82
2023/06/26 06:04:26;;;;;;;9.13;8.53;;;23.50;46.10;;;;;;20525;6841;308163;-84
2023/06/26 06:06:52;;;;;;;8.27;7.77;;;24.20;45.10;;;;;;20734;6841;123152;-83
2023/06/26 06:09:18;;;;;;;9.20;8.50;;;24.20;45.10;;;;;;20504;6841;307546;-84
2023/06/26 06:11:44;;;;;;;8.77;8.07;;;24.50;45.00;;;;;;20733;6841;117907;-88
2023/06/26 06:14:10;;;;;;;8.30;7.80;;;24.90;45.40;;;;;;20751;6841;117553;-86
2023/06/26 06:16:36;;;;;;;8.73;7.67;;;25.30;45.40;;;;;;20731;6841;117448;-84
2023/06/26 06:19:03;;;;;;;9.25;8.55;;;25.80;45.30;;;;;;20521;6841;336664;-85
2023/06/26 06:21:27;;;;;;;8.53;7.93;;;26.70;42.40;;;;;;20711;6841;117712;-83
2023/06/26 06:23:53;;;;;;;7.67;7.17;;;27.40;42.20;;;;;;20734;6841;118686;-87
2023/06/26 06:26:18;;;;;;;8.93;8.15;;;27.80;41.90;;;;;;20526;6841;307106;-82
2023/06/26 06:28:44;;;;;;;8.70;8.00;;;28.50;39.30;;;;;;20519;6841;311780;-84
2023/06/26 06:31:09;;;;;;;8.13;7.63;;;29.50;37.60;;;;;;20730;6841;117924;-84
2023/06/26 06:33:36;;;;;;;8.50;7.90;;;30.40;35.80;;;;;;20496;6841;312153;-84
2023/06/26 06:36:01;;;;;;;8.63;8.00;;;30.40;35.80;;;;;;20721;6841;118880;-84
2023/06/26 06:38:27;;;;;;;8.37;7.77;;;30.70;36.10;;;;;;20737;6839;118015;-84
2023/06/26 06:40:52;;;;;;;8.68;8.07;;;30.70;36.20;;;;;;20506;6840;294310;-84
2023/06/26 06:43:19;;;;;;;8.47;7.60;;;31.20;34.60;;;;;;20724;6840;123985;-84
2023/06/26 06:45:45;;;;;;;7.87;7.10;;;31.40;34.80;;;;;;20739;6841;117762;-84
2023/06/26 06:48:10;;;;;;;8.20;7.60;;;31.40;34.90;;;;;;20509;6841;308473;-84
2023/06/26 06:50:36;;;;;;;7.95;7.35;;;31.80;33.40;;;;;;20524;6841;297756;-83
2023/06/26 06:53:01;;;;;;;7.60;7.00;;;32.50;32.50;;;;;;20719;6841;117787;-84
2023/06/26 06:55:28;;;;;;;8.00;7.40;;;32.90;31.80;;;;;;20499;6841;278123;-84
2023/06/26 06:57:53;;;;;;;7.67;7.17;;;32.80;31.70;;;;;;20543;6841;283479;-84
2023/06/26 07:00:19;;;;;;;7.43;7.03;;;33.30;31.40;;;;;;20729;6841;117301;-84
2023/06/26 07:02:44;;;;;;;8.10;7.50;;;33.40;31.60;;;;;;20520;6841;311724;-84
2023/06/26 07:05:10;;;;;;;8.02;7.37;;;33.60;30.70;;;;;;20505;6841;307069;-84
2023/06/26 07:07:35;;;;;;;7.17;6.77;;;34.00;29.90;;;;;;20755;6841;117070;-85
2023/06/26 07:10:01;;;;;;;7.50;7.00;;;34.00;30.70;;;;;;20598;6841;305615;-85
2023/06/26 07:12:27;;;;;;;7.83;7.13;;;34.20;29.40;;;;;;20785;6841;117622;-84
2023/06/26 07:14:53;;;;;;;7.40;6.90;;;34.10;29.80;;;;;;20812;6841;119488;-84
2023/06/26 07:17:18;;;;;;;7.90;7.20;;;33.90;30.20;;;;;;20567;6841;328867;-83
2023/06/26 07:19:43;;;;;;;7.33;6.80;;;34.10;30.10;;;;;;20670;6841;121461;-84
2023/06/26 07:22:09;;;;;;;7.47;6.87;;;34.20;30.30;;;;;;20812;6841;117691;-84
2023/06/26 07:24:34;;;;;;;7.40;6.80;;;34.00;30.40;;;;;;20813;6841;116175;-83
2023/06/26 07:27:00;;;;;;;6.40;6.03;;;33.90;30.60;;;;;;20812;6841;120304;-87
2023/06/26 07:29:25;;;;;;;7.20;6.50;;;33.70;30.30;;;;;;20529;6841;283274;-84
2023/06/26 07:31:51;;;;;;;7.22;6.70;;;33.80;30.00;;;;;;20523;6841;306872;-84
2023/06/26 07:34:17;;;;;;;7.22;6.72;;;34.20;29.30;;;;;;20528;6841;307662;-84
2023/06/26 07:36:46;;;;;;;7.13;6.10;;;34.20;29.30;;;;;;20741;6841;118203;-84
2023/06/26 07:39:12;;;;;;;6.80;6.30;;;34.00;29.50;;;;;;20740;6841;117020;-84
2023/06/26 07:41:37;;;;;;;6.97;6.47;;;33.70;29.70;;;;;;20479;6841;280969;-83
2023/06/26 07:44:03;;;;;;;7.43;6.93;;;33.60;30.10;;;;;;20535;6841;283294;-83
2023/06/26 07:46:29;;;;;;;6.70;6.40;;;33.80;30.00;;;;;;20543;6841;282743;-83
2023/06/26 07:48:54;;;;;;;6.90;6.50;;;33.90;29.60;;;;;;20732;6839;117684;-84
2023/06/26 07:51:20;;;;;;;6.87;6.37;;;33.80;29.70;;;;;;20718;6840;117565;-84
2023/06/26 07:53:45;;;;;;;6.62;6.12;;;33.50;30.00;;;;;;20735;6840;117527;-84
2023/06/26 07:56:12;;;;;;;6.63;6.13;;;33.30;30.60;;;;;;20537;6841;277214;-83
2023/06/26 07:58:38;;;;;;;7.10;6.70;;;33.50;30.20;;;;;;20520;6841;307538;-83
2023/06/26 08:01:06;;;;;;;7.03;6.63;;;34.20;29.60;;;;;;20542;6841;307283;-83
2023/06/26 08:03:31;;;;;;;6.33;5.97;;;34.20;29.60;;;;;;20710;6841;127172;-84
2023/06/26 08:06:00;;;;;;;6.80;6.33;;;34.20;29.40;;;;;;20744;6841;117857;-83
2023/06/26 08:08:25;;;;;;;7.20;6.63;;;34.00;29.60;;;;;;20533;6841;278302;-83
2023/06/26 08:10:51;;;;;;;7.00;6.40;;;34.20;30.00;;;;;;20513;6841;310537;-83
2023/06/26 08:13:18;;;;;;;7.27;6.67;;;34.50;29.30;;;;;;20535;6841;277577;-84
2023/06/26 08:15:43;;;;;;;6.90;6.30;;;34.80;28.40;;;;;;20383;6841;307582;-84
2023/06/26 08:18:09;;;;;;;6.93;6.32;;;35.00;28.60;;;;;;20500;6841;312137;-84
2023/06/26 08:20:36;;;;;;;7.17;6.67;;;35.10;28.50;;;;;;20739;6841;121704;-83
2023/06/26 08:23:04;;;;;;;7.25;6.70;;;35.10;28.60;;;;;;20513;6841;336700;-84
2023/06/26 08:25:29;;;;;;;7.20;6.60;;;35.10;29.00;;;;;;20503;6841;278205;-84
2023/06/26 08:27:55;;;;;;;7.80;6.33;;;35.40;28.70;;;;;;20734;6841;117408;-83
2023/06/26 08:30:22;;;;;;;7.32;6.75;;;35.30;28.90;;;;;;20528;6841;281303;-83
2023/06/26 08:32:48;;;;;;;6.83;6.43;;;35.40;28.60;;;;;;20737;6841;117243;-84
2023/06/26 08:35:13;;;;;;;6.80;6.30;;;35.40;29.00;;;;;;20730;6841;118410;-84
2023/06/26 08:37:39;;;;;;;7.20;6.70;;;35.30;29.10;;;;;;20515;6841;277596;-83
2023/06/26 08:40:05;;;;;;;7.27;6.60;;;35.50;28.60;;;;;;20524;6841;337657;-84
2023/06/26 08:42:31;;;;;;;6.90;6.50;;;35.80;28.60;;;;;;20518;6841;336602;-83
2023/06/26 08:44:57;;;;;;;7.40;6.80;;;36.20;28.20;;;;;;20548;6841;306312;-83
2023/06/26 08:47:22;;;;;;;6.10;5.80;;;36.40;28.10;;;;;;20743;6841;146577;-83
2023/06/26 08:49:52;;;;;;;6.60;6.20;;;36.50;27.70;;;;;;20528;6841;309260;-84
2023/06/26 08:52:24;;;;;;;6.70;6.10;;;36.40;27.70;;;;;;20185;6841;277722;-84
2023/06/26 08:54:50;;;;;;;6.32;5.93;;;36.90;27.30;;;;;;20501;6841;325006;-84
2023/06/26 08:57:16;;;;;;;6.10;5.73;;;36.90;27.30;;;;;;20720;6841;117668;-84
2023/06/26 08:59:41;;;;;;;6.87;6.37;;;36.80;27.30;;;;;;20696;6841;119162;-84
2023/06/26 09:02:08;;;;;;;5.97;5.67;;;36.60;27.50;;;;;;20731;6839;119959;-85
2023/06/26 09:04:35;;;;;;;5.80;5.40;;;36.30;27.30;;;;;;20728;6840;117229;-84
2023/06/26 09:07:01;;;;;;;6.00;5.60;;;36.20;27.50;;;;;;20734;6840;117094;-84
2023/06/26 09:09:26;;;;;;;6.00;5.60;;;36.00;27.80;;;;;;20715;6841;118071;-84
2023/06/26 09:11:53;;;;;;;5.67;5.37;;;36.00;27.70;;;;;;20726;6841;117549;-85
2023/06/26 09:14:19;;;;;;;5.47;5.17;;;36.00;27.60;;;;;;20733;6841;117626;-84
2023/06/26 09:16:45;;;;;;;6.30;5.80;;;36.10;27.40;;;;;;20727;6841;118195;-84
2023/06/26 09:19:11;;;;;;;5.77;5.37;;;36.10;27.30;;;;;;20736;6841;117110;-84
2023/06/26 09:21:43;;;;;;;5.60;5.20;;;36.00;27.20;;;;;;20717;6841;121174;-85
2023/06/26 09:24:08;;;;;;;5.77;5.47;;;36.10;27.40;;;;;;20735;6841;117770;-84
2023/06/26 09:26:37;;;;;;;5.90;5.60;;;36.20;27.60;;;;;;20527;6841;307985;-83
2023/06/26 09:29:03;;;;;;;6.00;5.60;;;36.50;27.00;;;;;;20500;6841;337099;-84
2023/06/26 09:31:28;;;;;;;6.18;5.78;;;37.10;26.00;;;;;;20486;6841;308044;-84
2023/06/26 09:34:00;;;;;;;5.90;5.50;;;37.50;26.20;;;;;;20523;6841;280165;-84
2023/06/26 09:36:33;;;;;;;7.10;5.40;;;38.00;25.20;;;;;;20516;6841;310822;-85
2023/06/26 09:39:01;;;;;;;6.07;5.68;;;38.00;25.20;;;;;;20476;6841;339165;-83
2023/06/26 09:41:34;;;;;;;6.03;5.70;;;38.30;25.30;;;;;;20375;6841;307824;-83
2023/06/26 09:44:07;;;;;;;5.80;5.33;;;38.40;25.40;;;;;;20699;6841;66945;-83
2023/06/26 09:46:40;;;;;;;5.80;5.50;;;38.30;25.40;;;;;;20549;6841;117346;-83
2023/06/26 09:49:18;;;;;;;6.00;5.60;;;38.10;25.20;;;;;;20466;6841;277488;-83
2023/06/26 09:51:47;;;;;;;5.70;5.30;;;38.30;25.10;;;;;;20707;6841;120825;-83
2023/06/26 09:54:19;;;;;;;5.93;5.50;;;38.30;25.10;;;;;;20616;6841;117244;-81
2023/06/26 09:57:18;;;;;;;5.57;5.27;;;38.30;25.30;;;;;;20493;6841;302455;-83
2023/06/26 09:59:47;;;;;;;6.13;5.73;;;38.60;25.50;;;;;;20472;6841;280692;-83
2023/06/26 10:02:15;;;;;;;5.30;5.00;;;39.20;24.30;;;;;;20681;6841;117270;-84
2023/06/26 10:04:43;;;;;;;5.83;5.43;;;39.20;24.00;;;;;;20482;6841;278122;-81
2023/06/26 10:07:10;;;;;;;6.03;5.70;;;39.30;23.50;;;;;;20484;6841;307212;-79
2023/06/26 10:09:37;;;;;;;5.80;5.40;;;39.40;23.80;;;;;;20470;6841;307026;-79
2023/06/26 10:12:05;;;;;;;6.17;5.73;;;39.60;24.20;;;;;;20687;6839;121325;-79
2023/06/26 10:14:39;;;;;;;6.07;5.57;;;39.50;24.30;;;;;;20456;6840;295509;-81
2023/06/26 10:17:05;;;;;;;6.17;5.67;;;39.60;23.80;;;;;;20499;6840;278105;-81
2023/06/26 10:19:31;;;;;;;5.87;5.47;;;39.70;23.80;;;;;;20459;6841;309144;-77
2023/06/26 10:21:56;;;;;;;6.40;5.33;;;39.70;23.70;;;;;;20694;6841;117399;-77
2023/06/26 10:24:25;;;;;;;5.90;5.50;;;39.50;23.60;;;;;;20497;6841;315273;-78
2023/06/26 10:26:51;;;;;;;5.68;5.28;;;39.40;23.20;;;;;;20702;6841;122244;-83
2023/06/26 10:29:16;;;;;;;5.90;5.40;;;39.10;23.10;;;;;;20687;6841;117244;-83
2023/06/26 10:31:42;;;;;;;6.20;5.80;;;38.70;23.50;;;;;;20484;6841;340730;-85
2023/06/26 10:34:07;;;;;;;5.53;5.23;;;38.70;22.90;;;;;;20704;6841;116490;-82
2023/06/26 10:36:33;;;;;;;6.20;5.60;;;38.50;23.10;;;;;;20549;6841;117089;-80
2023/06/26 10:38:58;;;;;;;6.30;5.90;;;38.20;23.60;;;;;;20543;6841;120749;-81
2023/06/26 10:41:24;;;;;;;6.23;5.63;;;38.00;23.80;;;;;;20440;6841;281985;-83
2023/06/26 10:43:59;;;;;;;6.20;5.67;;;38.10;23.30;;;;;;20500;6841;337019;-83
2023/06/26 10:46:25;;;;;;;6.50;6.10;;;38.40;22.90;;;;;;20495;6841;307161;-82
2023/06/26 10:49:01;;;;;;;6.27;5.80;;;38.70;22.80;;;;;;20701;6841;117280;-81
2023/06/26 10:51:26;;;;;;;6.03;5.67;;;38.60;22.90;;;;;;20663;6841;117954;-79
2023/06/26 10:53:56;;;;;;;6.25;5.93;;;38.20;23.30;;;;;;20521;6841;307131;-81
2023/06/26 10:56:21;;;;;;;6.37;5.97;;;38.10;23.50;;;;;;20721;6841;116211;-83
2023/06/26 10:58:47;;;;;;;6.10;5.80;;;37.80;23.50;;;;;;20436;6841;279190;-82
2023/06/26 11:01:22;;;;;;;6.15;5.75;;;37.80;24.30;;;;;;20517;6841;309042;-81
2023/06/26 11:04:04;;;;;;;6.57;5.80;;;37.90;23.70;;;;;;20700;6841;118135;-81
2023/06/26 11:06:29;;;;;;;6.17;5.87;;;37.90;24.00;;;;;;20509;6841;312071;-80
2023/06/26 11:09:05;;;;;;;6.30;5.80;;;38.10;24.20;;;;;;20724;6841;117523;-80
2023/06/26 11:11:58;;;;;;;7.70;6.50;;;38.10;24.00;;;;;;20467;6841;313542;-79
2023/06/26 11:14:24;;;;;;;6.43;6.03;;;38.10;24.00;;;;;;20678;6841;121060;-78
2023/06/26 11:16:49;;;;;;;6.80;6.40;;;38.00;24.20;;;;;;20495;6841;282672;-78
2023/06/26 11:19:15;;;;;;;6.80;6.50;;;37.90;24.70;;;;;;20518;6841;311285;-78
2023/06/26 11:21:40;;;;;;;5.83;5.63;;;38.10;24.80;;;;;;20725;6841;117776;-79
2023/06/26 11:24:07;;;;;;;7.30;6.80;;;38.10;24.90;;;;;;20550;6839;307004;-81
2023/06/26 11:26:43;;;;;;;6.90;6.40;;;38.20;24.60;;;;;;20538;6840;309924;-76
2023/06/26 11:29:08;;;;;;;7.10;6.60;;;38.30;24.80;;;;;;20709;6840;117335;-80
2023/06/26 11:32:05;;;;;;;6.73;6.13;;;38.20;24.80;;;;;;20624;6841;118754;-76
2023/06/26 11:34:33;;;;;;;6.50;6.10;;;38.00;25.00;;;;;;20644;6841;118448;-77
2023/06/26 11:37:03;;;;;;;7.53;6.87;;;37.90;24.90;;;;;;20690;6841;118811;-77
2023/06/26 11:39:38;;;;;;;7.10;6.70;;;37.70;25.20;;;;;;20647;6841;118040;-78
2023/06/26 11:42:03;;;;;;;6.77;6.37;;;37.50;25.50;;;;;;20412;6841;306737;-81
2023/06/26 11:44:30;;;;;;;7.33;6.87;;;37.70;25.50;;;;;;20714;6841;117219;-77
2023/06/26 11:46:56;;;;;;;6.90;6.50;;;37.60;25.20;;;;;;20714;6841;119337;-76
2023/06/26 11:49:23;;;;;;;7.45;6.90;;;37.40;25.40;;;;;;20482;6841;307213;-77
2023/06/26 11:51:47;;;;;;;6.90;6.50;;;37.40;25.60;;;;;;20694;6841;118468;-82
2023/06/26 11:54:14;;;;;;;8.77;6.60;;;37.20;25.70;;;;;;20702;6841;117139;-82
2023/06/26 11:56:38;;;;;;;7.77;7.00;;;36.80;25.80;;;;;;20689;6841;117416;-82
2023/06/26 11:59:06;;;;;;;7.65;7.05;;;36.50;26.10;;;;;;20499;6841;311916;-81
2023/06/26 12:01:46;;;;;;;7.50;7.07;;;36.50;26.50;;;;;;20649;6841;117361;-83
2023/06/26 12:04:11;;;;;;;6.93;6.50;;;36.40;27.00;;;;;;20492;6841;340781;-83
2023/06/26 12:06:40;;;;;;;7.27;6.70;;;36.50;26.50;;;;;;20464;6841;277570;-84
2023/06/26 12:09:09;;;;;;;7.37;6.73;;;36.70;26.40;;;;;;20714;6841;119354;-85
2023/06/26 12:11:34;;;;;;;18.17;8.43;;;36.60;26.40;;;;;;20721;6841;124185;-82
2023/06/26 12:14:00;;;;;;;8.20;7.10;;;36.50;26.50;;;;;;20500;6841;309105;-84
2023/06/26 12:16:26;;;;;;;6.93;6.43;;;36.50;27.00;;;;;;20732;6841;116266;-84
2023/06/26 12:18:52;;;;;;;7.57;6.80;;;36.60;26.70;;;;;;20689;6841;117800;-84
2023/06/26 12:21:37;;;;;;;7.10;6.60;;;36.50;26.40;;;;;;20672;6841;120273;-84
2023/06/26 12:24:07;;;;;;;7.10;6.70;;;36.50;26.40;;;;;;20497;6841;308099;-82
2023/06/26 12:26:36;;;;;;;7.13;6.63;;;36.60;26.50;;;;;;20722;6841;118015;-83
2023/06/26 12:29:02;;;;;;;7.43;6.93;;;36.60;26.50;;;;;;20514;6841;310211;-84
2023/06/26 12:31:29;;;;;;;6.47;6.07;;;36.70;26.20;;;;;;20640;6841;117668;-86
2023/06/26 12:33:54;;;;;;;7.60;7.00;;;36.60;26.30;;;;;;20726;6841;120485;-84
2023/06/26 12:36:20;;;;;;;6.67;6.27;;;36.30;26.40;;;;;;20740;6839;117561;-85
2023/06/26 12:38:45;;;;;;;7.45;6.95;;;36.10;26.60;;;;;;20775;6840;117171;-88
2023/06/26 12:41:20;;;;;;;6.90;6.50;;;36.00;27.00;;;;;;20764;6840;116215;-82
2023/06/26 12:43:43;;;;;;;7.23;6.73;;;35.80;27.90;;;;;;20760;6841;120780;-83
2023/06/26 12:46:08;;;;;;;7.80;7.20;;;35.60;27.60;;;;;;20566;6841;277163;-84
2023/06/26 12:48:38;;;;;;;6.97;6.47;;;35.70;27.80;;;;;;20779;6841;116141;-82
2023/06/26 12:51:10;;;;;;;7.50;6.85;;;35.70;27.70;;;;;;20529;6841;341257;-81
2023/06/26 12:53:35;;;;;;;6.90;6.43;;;35.90;27.80;;;;;;20750;6841;116702;-80
2023/06/26 12:56:02;;;;;;;7.28;6.78;;;35.80;27.70;;;;;;20538;6841;304790;-81